createdAt,value
2019-02-19T00:02:13.409Z,11.35
2019-02-19T00:04:42.671Z,11.15
2019-02-19T00:07:11.239Z,9.98
2019-02-19T00:09:39.763Z,10.70
2019-02-19T00:12:08.342Z,9.00
2019-02-19T00:14:36.887Z,10.55
2019-02-19T00:17:05.615Z,9.55
2019-02-19T00:19:34.127Z,11.08
2019-02-19T00:22:02.597Z,9.28
2019-02-19T00:24:31.043Z,9.58
2019-02-19T00:26:59.613Z,9.98
2019-02-19T00:29:28.747Z,10.28
2019-02-19T00:31:57.360Z,11.08
2019-02-19T00:34:26.223Z,10.10
2019-02-19T00:36:55.080Z,9.88
2019-02-19T00:39:23.637Z,10.32
2019-02-19T00:41:52.709Z,11.03
2019-02-19T00:44:21.494Z,10.10
2019-02-19T00:46:49.950Z,9.33
2019-02-19T00:49:19.026Z,10.15
2019-02-19T00:51:48.122Z,10.55
2019-02-19T00:54:16.624Z,10.48
2019-02-19T00:56:45.151Z,9.68
2019-02-19T00:59:13.726Z,10.70
2019-02-19T01:01:42.365Z,11.73
2019-02-19T01:04:10.989Z,10.90
2019-02-19T01:06:39.437Z,8.63
2019-02-19T01:09:08.492Z,6.95
2019-02-19T01:11:37.416Z,8.30
2019-02-19T01:14:06.058Z,8.85
2019-02-19T01:16:34.872Z,7.28
2019-02-19T01:19:03.830Z,8.98
2019-02-19T01:21:32.368Z,7.20
2019-02-19T01:24:00.944Z,8.50
2019-02-19T01:26:29.495Z,9.10
2019-02-19T01:28:58.409Z,7.63
2019-02-19T01:31:27.060Z,6.87
2019-02-19T01:33:55.634Z,10.27
2019-02-19T01:36:24.308Z,9.77
2019-02-19T01:38:53.161Z,9.93
2019-02-19T01:41:21.993Z,10.05
2019-02-19T01:43:50.594Z,9.68
2019-02-19T01:46:19.491Z,10.93
2019-02-19T01:48:48.352Z,11.08
2019-02-19T01:51:17.168Z,11.15
2019-02-19T01:53:45.732Z,10.10
2019-02-19T01:56:17.504Z,10.35
2019-02-19T01:58:46.031Z,11.83
2019-02-19T02:01:14.664Z,11.57
2019-02-19T02:03:43.656Z,11.53
2019-02-19T02:06:12.341Z,11.15
2019-02-19T02:08:40.905Z,11.85
2019-02-19T02:11:09.535Z,11.80
2019-02-19T02:13:38.185Z,11.28
2019-02-19T02:16:06.811Z,12.58
2019-02-19T02:18:35.349Z,12.68
2019-02-19T02:21:04.243Z,11.22
2019-02-19T02:23:32.814Z,12.37
2019-02-19T02:26:01.691Z,12.95
2019-02-19T02:28:30.639Z,12.13
2019-02-19T02:30:59.504Z,10.03
2019-02-19T02:33:28.411Z,11.12
2019-02-19T02:35:57.269Z,12.85
2019-02-19T02:38:26.155Z,11.28
2019-02-19T02:40:55.176Z,12.78
2019-02-19T02:43:24.090Z,14.40
2019-02-19T02:45:53.802Z,12.13
2019-02-19T02:48:22.490Z,12.30
2019-02-19T02:50:51.282Z,13.32
2019-02-19T02:53:20.164Z,13.58
2019-02-19T02:55:48.701Z,13.40
2019-02-19T02:58:17.584Z,14.20
2019-02-19T03:00:46.458Z,13.95
2019-02-19T03:03:15.497Z,13.20
2019-02-19T03:05:50.059Z,14.47
2019-02-19T03:08:18.971Z,15.15
2019-02-19T03:10:47.839Z,17.12
2019-02-19T03:13:16.717Z,17.25
2019-02-19T03:15:45.516Z,17.32
2019-02-19T03:18:14.414Z,19.17
2019-02-19T03:20:43.361Z,18.77
2019-02-19T03:23:12.259Z,21.70
2019-02-19T03:25:41.136Z,22.35
2019-02-19T03:28:10.156Z,20.72
2019-02-19T03:30:39.349Z,22.17
2019-02-19T03:33:08.233Z,21.05
2019-02-19T03:35:37.208Z,21.52
2019-02-19T03:38:06.005Z,23.70
2019-02-19T03:40:35.316Z,23.20
2019-02-19T03:43:04.244Z,22.60
2019-02-19T03:45:33.156Z,23.73
2019-02-19T03:48:02.009Z,24.20
2019-02-19T03:50:37.320Z,25.08
2019-02-19T03:53:06.197Z,24.32
2019-02-19T03:55:35.037Z,26.30
2019-02-19T03:58:03.952Z,23.80
2019-02-19T04:00:33.067Z,24.98
2019-02-19T04:03:01.885Z,25.27
2019-02-19T04:05:30.939Z,24.05
2019-02-19T04:07:59.831Z,25.20
2019-02-19T04:10:28.788Z,26.97
2019-02-19T04:12:57.800Z,24.32
2019-02-19T04:15:26.349Z,24.20
2019-02-19T04:17:54.793Z,20.88
2019-02-19T04:20:23.760Z,21.85
2019-02-19T04:22:52.347Z,23.25
2019-02-19T04:25:20.814Z,21.20
2019-02-19T04:27:49.291Z,22.60
2019-02-19T04:30:18.167Z,22.55
2019-02-19T04:32:47.056Z,22.13
2019-02-19T04:35:15.920Z,21.75
2019-02-19T04:37:44.481Z,23.75
2019-02-19T04:40:13.079Z,23.38
2019-02-19T04:42:41.645Z,21.93
2019-02-19T04:45:10.608Z,22.50
2019-02-19T04:47:39.149Z,22.02
2019-02-19T04:50:08.293Z,24.30
2019-02-19T04:52:37.169Z,22.60
2019-02-19T04:55:06.736Z,23.32
2019-02-19T04:57:35.226Z,24.10
2019-02-19T05:00:06.154Z,22.90
2019-02-19T05:02:34.658Z,22.42
2019-02-19T05:05:03.687Z,23.30
2019-02-19T05:07:32.229Z,24.40
2019-02-19T05:10:01.111Z,25.25
2019-02-19T05:12:29.966Z,24.60
2019-02-19T05:14:58.450Z,24.43
2019-02-19T05:17:27.328Z,24.80
2019-02-19T05:19:56.450Z,24.23
2019-02-19T05:22:25.245Z,22.45
2019-02-19T05:24:54.269Z,23.85
2019-02-19T05:27:23.190Z,22.13
2019-02-19T05:29:52.075Z,21.10
2019-02-19T05:32:20.937Z,21.90
2019-02-19T05:34:49.828Z,22.00
2019-02-19T05:37:18.722Z,21.37
2019-02-19T05:39:47.602Z,21.35
2019-02-19T05:42:16.621Z,22.37
2019-02-19T05:44:45.587Z,20.45
2019-02-19T05:47:14.490Z,20.62
2019-02-19T05:49:43.460Z,22.25
2019-02-19T05:52:12.362Z,20.88
2019-02-19T05:54:41.290Z,22.02
2019-02-19T05:57:10.228Z,21.37
2019-02-19T05:59:38.804Z,20.65
2019-02-19T06:02:07.840Z,21.70
2019-02-19T06:04:36.353Z,21.90
2019-02-19T06:07:04.992Z,20.68
2019-02-19T06:09:33.440Z,20.85
2019-02-19T06:12:02.018Z,21.87
2019-02-19T06:14:30.532Z,22.50
2019-02-19T06:16:59.026Z,22.98
2019-02-19T06:19:27.544Z,23.47
2019-02-19T06:21:56.370Z,23.07
2019-02-19T06:24:25.231Z,21.20
2019-02-19T06:26:53.793Z,24.37
2019-02-19T06:29:22.657Z,21.45
2019-02-19T06:31:51.544Z,22.95
2019-02-19T06:34:20.006Z,23.10
2019-02-19T06:36:48.823Z,21.80
2019-02-19T06:39:17.631Z,22.27
2019-02-19T06:41:46.180Z,22.32
2019-02-19T06:44:14.969Z,22.93
2019-02-19T06:46:43.839Z,23.87
2019-02-19T06:49:12.833Z,24.65
2019-02-19T06:51:41.787Z,22.70
2019-02-19T06:54:10.887Z,22.73
2019-02-19T06:56:39.826Z,24.92
2019-02-19T06:59:08.815Z,22.80
2019-02-19T07:01:41.921Z,23.67
2019-02-19T07:04:12.547Z,21.15
2019-02-19T07:06:41.047Z,24.23
2019-02-19T07:09:10.068Z,22.98
2019-02-19T07:11:39.075Z,22.50
2019-02-19T07:14:07.914Z,22.90
2019-02-19T07:16:36.786Z,22.30
2019-02-19T07:19:05.799Z,23.25
2019-02-19T07:21:34.782Z,24.20
2019-02-19T07:24:04.631Z,22.90
2019-02-19T07:26:33.803Z,22.58
2019-02-19T07:29:02.319Z,21.15
2019-02-19T07:31:30.797Z,21.00
2019-02-19T07:33:59.283Z,20.40
2019-02-19T07:36:27.989Z,20.75
2019-02-19T07:38:56.511Z,20.82
2019-02-19T07:41:25.065Z,22.25
2019-02-19T07:43:54.254Z,20.27
2019-02-19T07:46:23.699Z,21.10
2019-02-19T07:48:52.597Z,22.75
2019-02-19T07:51:21.417Z,22.10
2019-02-19T07:53:49.975Z,18.98
2019-02-19T07:56:18.854Z,22.62
2019-02-19T07:58:47.725Z,22.45
2019-02-19T08:01:16.608Z,22.20
2019-02-19T08:03:45.534Z,19.52
2019-02-19T08:06:14.452Z,20.52
2019-02-19T08:08:43.560Z,20.75
2019-02-19T08:11:12.245Z,19.30
2019-02-19T08:13:41.129Z,20.43
2019-02-19T08:16:10.024Z,22.40
2019-02-19T08:18:39.004Z,21.17
2019-02-19T08:21:07.922Z,20.10
2019-02-19T08:23:36.937Z,21.25
2019-02-19T08:26:05.947Z,19.75
2019-02-19T08:28:34.960Z,20.32
2019-02-19T08:31:03.513Z,18.65
2019-02-19T08:33:33.859Z,17.75
2019-02-19T08:36:02.824Z,19.87
2019-02-19T08:38:31.616Z,19.07
2019-02-19T08:41:00.511Z,19.90
2019-02-19T08:43:29.369Z,18.70
2019-02-19T08:45:58.258Z,17.27
2019-02-19T08:48:27.303Z,16.77
2019-02-19T08:50:56.203Z,18.02
2019-02-19T08:53:25.347Z,17.40
2019-02-19T08:55:54.293Z,18.00
2019-02-19T08:58:23.189Z,16.30
2019-02-19T09:00:52.214Z,16.30
2019-02-19T09:03:21.216Z,16.12
2019-02-19T09:05:49.823Z,16.10
2019-02-19T09:08:18.353Z,16.27
2019-02-19T09:10:46.876Z,15.43
2019-02-19T09:13:15.349Z,15.15
2019-02-19T09:15:46.778Z,15.45
2019-02-19T09:18:15.680Z,14.83
2019-02-19T09:20:44.205Z,13.93
2019-02-19T09:23:13.093Z,14.87
2019-02-19T09:25:41.961Z,15.32
2019-02-19T09:28:10.786Z,14.83
2019-02-19T09:30:39.717Z,12.43
2019-02-19T09:33:08.765Z,13.80
2019-02-19T09:35:37.677Z,13.95
2019-02-19T09:38:06.908Z,12.20
2019-02-19T09:40:35.931Z,13.00
2019-02-19T09:43:05.055Z,13.20
2019-02-19T09:45:33.733Z,13.62
2019-02-19T09:48:02.386Z,12.82
2019-02-19T09:50:31.897Z,11.50
2019-02-19T09:53:00.536Z,12.78
2019-02-19T09:55:29.593Z,11.85
2019-02-19T09:57:58.465Z,12.03
2019-02-19T10:00:27.354Z,10.95
2019-02-19T10:02:55.902Z,11.10
2019-02-19T10:05:24.449Z,10.80
2019-02-19T10:07:52.916Z,11.45
2019-02-19T10:10:22.390Z,11.65
2019-02-19T10:12:50.923Z,10.82
2019-02-19T10:15:19.406Z,10.90
2019-02-19T10:17:48.264Z,9.25
2019-02-19T10:20:16.751Z,9.83
2019-02-19T10:22:45.266Z,8.70
2019-02-19T10:25:14.393Z,10.10
2019-02-19T10:27:42.889Z,9.60
2019-02-19T10:30:15.217Z,10.20
2019-02-19T10:32:43.738Z,9.30
2019-02-19T10:35:15.135Z,9.58
2019-02-19T10:37:43.791Z,9.60
2019-02-19T10:40:13.515Z,9.17
2019-02-19T10:42:41.844Z,9.10
2019-02-19T10:45:14.650Z,8.93
2019-02-19T10:47:42.940Z,9.17
2019-02-19T10:50:11.298Z,8.07
2019-02-19T10:52:39.570Z,8.33
2019-02-19T10:55:08.686Z,8.10
2019-02-19T10:57:36.952Z,8.17
2019-02-19T11:00:13.838Z,9.03
2019-02-19T11:02:42.347Z,8.73
2019-02-19T11:05:10.660Z,8.00
2019-02-19T11:07:38.925Z,7.83
2019-02-19T11:10:08.706Z,7.20
2019-02-19T11:12:37.046Z,8.60
2019-02-19T11:15:06.384Z,7.63
2019-02-19T11:17:34.640Z,8.10
2019-02-19T11:20:03.678Z,7.75
2019-02-19T11:22:32.499Z,7.10
2019-02-19T11:25:01.351Z,7.42
2019-02-19T11:27:29.941Z,7.58
2019-02-19T11:29:58.830Z,7.30
2019-02-19T11:32:28.854Z,8.03
2019-02-19T11:34:57.718Z,7.85
2019-02-19T11:37:26.025Z,7.00
2019-02-19T11:39:54.446Z,6.80
2019-02-19T11:42:22.718Z,7.97
2019-02-19T11:44:50.958Z,8.03
2019-02-19T11:47:26.494Z,6.80
2019-02-19T11:49:49.528Z,8.53
2019-02-19T11:52:18.044Z,7.50
2019-02-19T11:54:46.863Z,7.95
2019-02-19T11:57:15.675Z,8.20
2019-02-19T11:59:44.295Z,7.78
2019-02-19T12:02:13.505Z,7.77
2019-02-19T12:04:42.110Z,13.62
2019-02-19T12:07:10.828Z,9.63
2019-02-19T12:09:39.501Z,8.40
2019-02-19T12:12:07.839Z,7.23
2019-02-19T12:14:36.587Z,7.53
2019-02-19T12:17:04.857Z,6.50
2019-02-19T12:19:33.121Z,6.67
2019-02-19T12:22:01.639Z,7.93
2019-02-19T12:24:29.904Z,7.60
2019-02-19T12:26:58.485Z,8.50
2019-02-19T12:29:27.824Z,7.67
2019-02-19T12:31:56.466Z,7.80
2019-02-19T12:34:25.060Z,7.47
2019-02-19T12:36:53.315Z,8.37
2019-02-19T12:39:21.940Z,8.50
2019-02-19T12:41:50.515Z,8.13
2019-02-19T12:44:18.720Z,8.87
2019-02-19T12:46:47.329Z,8.97
2019-02-19T12:49:16.545Z,9.03
2019-02-19T12:51:45.942Z,8.60
2019-02-19T12:54:14.342Z,9.27
2019-02-19T12:56:43.740Z,9.10
2019-02-19T12:59:15.734Z,8.80
2019-02-19T13:01:44.523Z,8.80
2019-02-19T13:04:13.104Z,8.70
2019-02-19T13:06:41.988Z,9.90
2019-02-19T13:09:10.930Z,8.80
2019-02-19T13:11:39.536Z,8.40
2019-02-19T13:14:08.170Z,9.20
2019-02-19T13:16:36.840Z,10.30
2019-02-19T13:19:05.425Z,9.37
2019-02-19T13:21:34.018Z,8.83
2019-02-19T13:24:02.631Z,9.60
2019-02-19T13:26:31.370Z,10.20
2019-02-19T13:28:59.608Z,9.37
2019-02-19T13:31:28.429Z,9.03
2019-02-19T13:33:57.292Z,9.75
2019-02-19T13:36:26.176Z,8.93
2019-02-19T13:38:55.050Z,8.38
2019-02-19T13:41:23.984Z,8.68
2019-02-19T13:43:52.870Z,9.15
2019-02-19T13:46:21.812Z,8.30
2019-02-19T13:48:50.430Z,6.80
2019-02-19T13:51:19.220Z,7.70
2019-02-19T13:53:49.761Z,7.20
2019-02-19T13:56:18.712Z,7.45
2019-02-19T13:58:47.386Z,8.30
2019-02-19T14:01:16.478Z,6.62
2019-02-19T14:03:45.145Z,6.65
2019-02-19T14:06:13.745Z,7.10
2019-02-19T14:08:42.117Z,7.50
2019-02-19T14:11:10.569Z,7.53
2019-02-19T14:13:40.755Z,7.35
2019-02-19T14:16:10.932Z,8.23
2019-02-19T14:18:47.193Z,6.55
2019-02-19T14:21:17.519Z,7.25
2019-02-19T14:24:03.859Z,7.92
2019-02-19T14:26:42.777Z,6.83
2019-02-19T14:29:31.075Z,5.65
2019-02-19T14:32:19.537Z,6.15
2019-02-19T14:35:07.946Z,6.03
2019-02-19T14:37:53.683Z,5.10
2019-02-19T14:40:39.829Z,5.43
2019-02-19T14:43:09.796Z,5.70
2019-02-19T14:45:45.585Z,5.70
2019-02-19T14:48:32.122Z,5.60
2019-02-19T14:51:02.292Z,6.10
2019-02-19T14:53:44.752Z,6.30
2019-02-19T14:56:30.077Z,6.50
2019-02-19T14:59:12.436Z,6.10
2019-02-19T15:01:54.673Z,5.60
2019-02-19T15:04:25.002Z,5.33
2019-02-19T15:07:01.253Z,6.30
2019-02-19T15:09:37.286Z,6.27
2019-02-19T15:12:14.604Z,5.80
2019-02-19T15:14:44.916Z,5.90
2019-02-19T15:17:24.674Z,5.50
2019-02-19T15:33:32.694Z,6.15
2019-02-19T15:36:12.312Z,6.37
2019-02-19T15:38:43.061Z,6.70
2019-02-19T15:41:20.320Z,6.37
2019-02-19T15:43:53.438Z,6.50
2019-02-19T15:46:30.090Z,6.05
2019-02-19T15:49:01.040Z,7.70
2019-02-19T15:51:48.369Z,5.70
2019-02-19T15:54:34.224Z,6.40
2019-02-19T15:57:05.000Z,7.35
2019-02-19T15:59:37.982Z,6.55
2019-02-19T16:02:11.251Z,6.67
2019-02-19T16:04:42.084Z,6.85
2019-02-19T16:07:25.038Z,5.90
2019-02-19T16:13:05.590Z,7.37
2019-02-19T16:15:52.479Z,5.97
2019-02-19T16:18:28.774Z,5.22
2019-02-19T16:20:59.428Z,5.50
2019-02-19T16:23:30.171Z,5.30
2019-02-19T16:26:03.333Z,5.65
2019-02-19T16:28:34.255Z,5.00
2019-02-19T16:31:07.357Z,5.80
2019-02-19T16:33:43.555Z,6.05
2019-02-19T16:36:30.146Z,5.30
2019-02-19T16:39:36.152Z,5.42
2019-02-19T16:42:09.958Z,5.65
2019-02-19T16:44:46.885Z,7.60
2019-02-19T16:47:17.405Z,5.22
2019-02-19T16:49:48.105Z,5.90
2019-02-19T16:52:27.619Z,4.03
2019-02-19T16:54:58.336Z,4.45
2019-02-19T16:57:31.615Z,4.95
2019-02-19T17:00:07.859Z,4.62
2019-02-19T17:02:50.362Z,4.45
2019-02-19T17:05:21.104Z,4.80
2019-02-19T17:07:52.905Z,4.37
2019-02-19T17:10:23.450Z,4.42
2019-02-19T17:12:53.942Z,4.42
2019-02-19T17:15:40.863Z,4.92
2019-02-19T17:18:27.753Z,4.50
2019-02-19T17:21:00.545Z,4.10
2019-02-19T17:23:46.014Z,4.37
2019-02-19T17:26:16.801Z,4.30
2019-02-19T17:28:50.145Z,5.40
2019-02-19T17:31:32.808Z,8.45
2019-02-19T17:34:09.409Z,7.60
2019-02-19T17:36:56.301Z,5.75
2019-02-19T17:39:29.766Z,5.97
2019-02-19T17:42:03.199Z,4.20
2019-02-19T17:44:34.226Z,4.75
2019-02-19T17:47:20.058Z,11.10
2019-02-19T17:50:05.374Z,4.92
2019-02-19T17:52:51.050Z,4.60
2019-02-19T17:55:27.318Z,3.08
2019-02-19T17:58:09.718Z,4.00
2019-02-19T18:00:45.769Z,4.10
2019-02-19T18:03:32.406Z,3.58
2019-02-19T18:06:06.155Z,4.17
2019-02-19T18:08:36.722Z,3.80
2019-02-19T18:11:23.342Z,3.55
2019-02-19T18:14:02.737Z,3.87
2019-02-19T18:16:51.268Z,3.60
2019-02-19T18:19:20.116Z,4.50
2019-02-19T18:21:48.998Z,3.58
2019-02-19T18:24:17.861Z,3.30
2019-02-19T18:26:46.784Z,3.95
2019-02-19T18:29:16.039Z,3.90
2019-02-19T18:31:44.648Z,4.28
2019-02-19T18:34:13.660Z,4.33
2019-02-19T18:36:42.624Z,3.98
2019-02-19T18:39:11.571Z,3.70
2019-02-19T18:41:40.529Z,3.20
2019-02-19T18:44:09.482Z,3.90
2019-02-19T18:46:38.574Z,4.50
2019-02-19T18:49:07.606Z,3.90
2019-02-19T18:51:36.826Z,3.60
2019-02-19T18:54:05.696Z,3.83
2019-02-19T18:56:34.680Z,3.62
2019-02-19T18:59:03.550Z,4.37
2019-02-19T19:01:32.409Z,5.22
2019-02-19T19:04:01.344Z,2.60
2019-02-19T19:06:30.228Z,4.45
2019-02-19T19:08:59.225Z,4.05
2019-02-19T19:11:28.114Z,4.00
2019-02-19T19:13:56.965Z,3.20
2019-02-19T19:16:25.972Z,3.25
2019-02-19T19:18:54.837Z,3.50
2019-02-19T19:21:23.887Z,3.37
2019-02-19T19:23:52.907Z,3.30
2019-02-19T19:26:21.858Z,3.22
2019-02-19T19:28:50.899Z,3.33
2019-02-19T19:31:19.915Z,3.72
2019-02-19T19:33:49.026Z,4.25
2019-02-19T19:36:18.160Z,4.58
2019-02-19T19:38:47.067Z,4.70
2019-02-19T19:41:15.973Z,3.80
2019-02-19T19:43:44.904Z,4.42
2019-02-19T19:46:13.786Z,4.20
2019-02-19T19:48:42.644Z,4.35
2019-02-19T19:51:17.254Z,3.62
2019-02-19T19:53:42.624Z,4.30
2019-02-19T19:56:11.611Z,3.40
2019-02-19T19:58:40.946Z,3.80
2019-02-19T20:01:10.091Z,3.70
2019-02-19T20:03:38.984Z,3.72
2019-02-19T20:06:08.093Z,4.70
2019-02-19T20:08:37.227Z,3.87
2019-02-19T20:11:06.412Z,4.67
2019-02-19T20:13:35.677Z,4.35
2019-02-19T20:16:04.748Z,4.15
2019-02-19T20:18:39.050Z,3.95
2019-02-19T20:21:04.369Z,3.67
2019-02-19T20:23:33.348Z,3.60
2019-02-19T20:26:02.592Z,4.12
2019-02-19T20:28:31.668Z,4.50
2019-02-19T20:31:00.639Z,3.50
2019-02-19T20:33:30.531Z,4.40
2019-02-19T20:35:59.493Z,3.85
2019-02-19T20:38:28.375Z,3.58
2019-02-19T20:40:57.344Z,4.05
2019-02-19T20:43:26.323Z,4.33
2019-02-19T20:45:55.409Z,4.47
2019-02-19T20:48:24.403Z,3.75
2019-02-19T20:50:53.292Z,4.20
2019-02-19T20:53:22.502Z,4.03
2019-02-19T20:55:51.395Z,4.03
2019-02-19T20:58:20.255Z,4.10
2019-02-19T21:00:49.704Z,4.35
2019-02-19T21:03:18.703Z,4.33
2019-02-19T21:05:47.642Z,4.15
2019-02-19T21:08:16.462Z,4.47
2019-02-19T21:10:45.380Z,3.80
2019-02-19T21:13:14.222Z,4.90
2019-02-19T21:15:43.250Z,3.62
2019-02-19T21:18:13.724Z,5.12
2019-02-19T21:20:43.002Z,4.10
2019-02-19T21:23:11.981Z,4.28
2019-02-19T21:25:40.939Z,3.98
2019-02-19T21:28:09.858Z,3.95
2019-02-19T21:30:38.737Z,3.45
2019-02-19T21:33:07.765Z,4.15
2019-02-19T21:35:36.926Z,4.30
2019-02-19T21:38:06.084Z,5.70
2019-02-19T21:40:34.991Z,4.22
2019-02-19T21:43:03.915Z,4.80
2019-02-19T21:45:32.843Z,5.12
2019-02-19T21:48:01.818Z,5.35
2019-02-19T21:50:30.705Z,5.17
2019-02-19T21:52:59.647Z,5.10
2019-02-19T21:55:28.564Z,6.00
2019-02-19T21:57:57.389Z,5.37
2019-02-19T22:00:28.470Z,6.10
2019-02-19T22:02:57.328Z,6.20
2019-02-19T22:05:26.185Z,6.20
2019-02-19T22:07:55.495Z,5.17
2019-02-19T22:10:24.493Z,5.78
2019-02-19T22:12:53.458Z,6.20
2019-02-19T22:15:22.418Z,4.95
2019-02-19T22:17:51.294Z,5.05
2019-02-19T22:20:37.783Z,5.58
2019-02-19T22:23:07.074Z,5.25
2019-02-19T22:25:36.020Z,5.00
2019-02-19T22:28:05.992Z,4.87
2019-02-19T22:30:35.295Z,6.55
2019-02-19T22:33:04.278Z,5.67
2019-02-19T22:35:33.432Z,6.25
2019-02-19T22:38:03.159Z,6.00
2019-02-19T22:40:32.301Z,5.58
2019-02-19T22:43:01.306Z,6.45
2019-02-19T22:45:29.863Z,6.05
2019-02-19T22:47:58.710Z,5.12
2019-02-19T22:50:27.603Z,4.95
2019-02-19T22:52:56.478Z,6.05
2019-02-19T22:55:27.140Z,5.70
2019-02-19T22:57:56.270Z,5.78
2019-02-19T23:00:47.862Z,5.35
2019-02-19T23:03:18.489Z,6.00
2019-02-19T23:05:47.471Z,4.90
2019-02-19T23:08:16.339Z,5.42
2019-02-19T23:10:45.257Z,6.00
2019-02-19T23:13:14.623Z,5.30
2019-02-19T23:15:43.734Z,5.33
2019-02-19T23:18:12.862Z,4.80
2019-02-19T23:20:41.841Z,4.62
2019-02-19T23:23:10.706Z,5.40
2019-02-19T23:25:39.656Z,6.95
2019-02-19T23:28:08.568Z,5.28
2019-02-19T23:30:37.471Z,5.25
2019-02-19T23:33:06.489Z,5.62
2019-02-19T23:35:47.220Z,5.90
2019-02-19T23:38:16.194Z,4.60
2019-02-19T23:40:45.096Z,5.65
2019-02-19T23:43:14.062Z,5.83
2019-02-19T23:45:43.008Z,5.60
2019-02-19T23:48:11.884Z,5.10
2019-02-19T23:50:40.995Z,5.87
2019-02-19T23:53:10.811Z,5.58
2019-02-19T23:56:04.506Z,5.37
2019-02-19T23:58:33.313Z,5.30
